Knight Air

Knight Air knights of the virtual airways


 METAR AND TAF INFORMATION
METAR FOR EGHH
ADDS - METARS form results

(1849 UTC 15 June 2021)
Data provider http://aviationweather.gov/metar/data/
 
METAR text: EGHH 151820Z 20004KT 180V240 CAVOK 21/14 Q1018
Conditions at: EGHH (BOURNEMOUTH AIRP, GB) observed 1820 UTC 15 June 2021
Temperature: 21.0°C (70°F)
Dewpoint: 14.0°C (57°F) [RH = 64%]
Pressure (altimeter): 30.06 inches Hg (1018.0 mb)
Winds: from the SSW (200 degrees) at 5 MPH (4 knots; 2.1 m/s)
Visibility: 6 or more miles (10+ km)
Ceiling: ceiling and visibility are OK
Clouds: unknown
Weather: no significant weather observed at this time

METAR text: EGHH 151750Z 20007KT CAVOK 21/14 Q1018
Conditions at: EGHH (BOURNEMOUTH AIRP, GB) observed 1750 UTC 15 June 2021
Temperature: 21.0°C (70°F)
Dewpoint: 14.0°C (57°F) [RH = 64%]
Pressure (altimeter): 30.06 inches Hg (1018.0 mb)
Winds: from the SSW (200 degrees) at 8 MPH (7 knots; 3.6 m/s)
Visibility: 6 or more miles (10+ km)
Ceiling: ceiling and visibility are OK
Clouds: unknown
Weather: no significant weather observed at this time

Forecast for: EGHH (BOURNEMOUTH AIRP, GB)
Text: TAF EGHH 151657Z 1518/1521 18007KT 9999 FEW040
Forecast period: 1800 to 2100 UTC 15 June 2021
Forecast type: FROM: standard forecast or significant change
Winds: from the S (180 degrees) at 8 MPH (7 knots; 3.6 m/s)
Visibility: 6 or more miles (10+ km)
Ceiling: at least 12,000 feet AGL
Clouds: few clouds at 4000 feet AGL
Weather: no significant weather forecast for this period

 AIRPORT MAP

 RUNWAY INFORMATION
Runway 08 Runway length 7451 ft Runway width 151 ft
Runway elevation 38 ft Runway displaced threshold 1383 ft Runway heading 75
Runway 26 Runway length 7451 ft Runway width 151 ft
Runway elevation 31 ft Runway displaced threshold 0 ft Runway heading 255

 AIRPORT FREQUENCIES
Type APP Name APP Frequency 119.475 MHZ
Type ATIS Name ATIS Frequency 121.95 MHZ
Type GND Name GND Frequency 121.7 MHZ
Type TWR Name TWR Frequency 125.6 MHZ

 AIRPORT NEAR NAVIGATION AIDS